4 De Coeur — FW6599 — position and weather

sailwx.info

Track history (hours):
 
Tides and Currents Weather Stations Pressure Air Temp Water Temp Dewpoint Dewpoint Depression Visibility Wind Speed Wind Dir Waves Ship Positions

4 De Coeur

Last reported at 2015-May-15 15:29 UTC. Time now 2015-May-30 14:35 UTC.
Position N 47°33' W 002°54'.
Warning: this ship's position is 14 days out of date.

Length 11 m.

Type: Pleasure craft. MMSI: 227523340.

Date/timePositionNaut miles runAvg speedWind from/ knotsBaromVisibWave heightAir tempDewpointWater temp
2015-May-15 15:29N 47°33' W 002°54'0 0.0
2015-May-15 14:29N 47°33' W 002°54'0 0.0
2015-May-15 13:32N 47°33' W 002°54'0 0.0
2015-May-15 12:32N 47°33' W 002°54'0 0.0
2015-May-15 11:32N 47°33' W 002°54'2 2.1
2015-May-15 10:32N 47°30' W 002°54'2 1.9
2015-May-15 09:31N 47°32' W 002°55'1 0.0
2015-May-13 16:24N 47°33' W 002°54'4 5.0
2015-May-13 15:33N 47°29' W 002°56'2 1.6
2015-May-13 14:22N 47°27' W 002°58'5 6.4
2015-May-13 13:33N 47°32' W 002°55'1 0.7
2015-May-13 12:08N 47°33' W 002°54'0 0.0
2015-May-13 11:29N 47°33' W 002°54'0 0.0
2015-May-13 10:29N 47°33' W 002°54'  
2015-May-08 15:33N 47°33' W 002°54'  
Track history (hours):
 
Tides and Currents Weather Stations Pressure Air Temp Water Temp Dewpoint Dewpoint Depression Visibility Wind Speed Wind Dir Waves Ship Positions

4 De Coeur

Last reported at 2015-May-15 15:29 UTC. Time now 2015-May-30 14:35 UTC.
Position N 47°33' W 002°54'.
Warning: this ship's position is 14 days out of date.

Length 11 m.

Type: Pleasure craft. MMSI: 227523340.

Date/timePositionNaut miles runAvg speedWind from/ knotsBaromVisibWave heightAir tempDewpointWater temp
2015-May-15 15:29N 47°33' W 002°54'0 0.0
2015-May-15 14:29N 47°33' W 002°54'0 0.0
2015-May-15 13:32N 47°33' W 002°54'0 0.0
2015-May-15 12:32N 47°33' W 002°54'0 0.0
2015-May-15 11:32N 47°33' W 002°54'2 2.1
2015-May-15 10:32N 47°30' W 002°54'2 1.9
2015-May-15 09:31N 47°32' W 002°55'1 0.0
2015-May-13 16:24N 47°33' W 002°54'4 5.0
2015-May-13 15:33N 47°29' W 002°56'2 1.6
2015-May-13 14:22N 47°27' W 002°58'5 6.4
2015-May-13 13:33N 47°32' W 002°55'1 0.7
2015-May-13 12:08N 47°33' W 002°54'0 0.0
2015-May-13 11:29N 47°33' W 002°54'0 0.0
2015-May-13 10:29N 47°33' W 002°54'  
2015-May-08 15:33N 47°33' W 002°54'  

Dump ship's entire track history